Time;durP1;ratioP1;P1;durP2;ratioP2;P2;SDS_P1;SDS_P2;PMS_P1;PMS_P2;Temp;Humidity;BMP_temperature;BMP_pressure;BME280_temperature;BME280_humidity;BME280_pressure;Samples;Min_cycle;Max_cycle;Signal;HPM_P1;HPM_P2
2023/12/26 00:02:08;;;;;;;1.70;1.60;;;9.00;52.50;;;;;;20985;6715;117287;-83
2023/12/26 00:04:45;;;;;;;1.53;1.43;;;8.60;53.00;;;;;;21006;6718;117299;-83
2023/12/26 00:07:23;;;;;;;2.78;2.00;;;8.60;53.00;;;;;;20785;6718;334274;-83
2023/12/26 00:09:56;;;;;;;2.10;1.90;;;8.80;52.90;;;;;;20733;6721;306152;-83
2023/12/26 00:12:35;;;;;;;2.33;1.53;;;9.20;52.40;;;;;;20982;6722;116721;-83
2023/12/26 00:15:08;;;;;;;1.57;1.47;;;9.20;52.30;;;;;;21019;6715;117123;-84
2023/12/26 00:17:43;;;;;;;1.70;1.60;;;9.00;52.70;;;;;;20825;6710;304963;-83
2023/12/26 00:20:21;;;;;;;3.53;1.70;;;9.10;52.50;;;;;;20664;6721;307418;-83
2023/12/26 00:22:57;;;;;;;1.60;1.50;;;9.70;51.40;;;;;;20792;6718;275792;-82
2023/12/26 00:25:35;;;;;;;1.87;1.77;;;9.70;51.40;;;;;;21007;6718;117867;-84
2023/12/26 00:28:09;;;;;;;3.47;1.63;;;9.20;52.30;;;;;;20996;6718;116962;-83
2023/12/26 00:30:44;;;;;;;1.70;1.60;;;9.20;51.80;;;;;;20687;6718;276681;-83
2023/12/26 00:33:20;;;;;;;2.10;1.90;;;9.30;51.80;;;;;;20835;6706;306245;-83
2023/12/26 00:35:58;;;;;;;2.93;2.00;;;9.60;51.30;;;;;;20774;6721;307186;-83
2023/12/26 00:38:31;;;;;;;1.63;1.53;;;9.70;50.80;;;;;;20979;6721;117536;-83
2023/12/26 00:41:07;;;;;;;1.57;1.47;;;9.60;50.90;;;;;;20877;6706;117921;-83
2023/12/26 00:43:42;;;;;;;1.70;1.60;;;9.20;51.30;;;;;;21033;6710;117285;-83
2023/12/26 00:46:18;;;;;;;2.53;1.92;;;8.90;51.90;;;;;;20781;6710;334325;-84
2023/12/26 00:48:54;;;;;;;1.80;1.70;;;9.00;52.70;;;;;;21035;6710;116852;-84
2023/12/26 00:51:31;;;;;;;2.90;1.85;;;9.10;52.10;;;;;;20588;6781;337584;-84
2023/12/26 00:54:07;;;;;;;1.50;1.30;;;9.10;52.00;;;;;;21014;6710;150685;-83
2023/12/26 00:56:43;;;;;;;3.33;1.63;;;8.80;52.20;;;;;;21031;6710;117175;-83
2023/12/26 00:59:19;;;;;;;2.03;1.50;;;8.80;52.20;;;;;;21010;6710;116995;-82
2023/12/26 01:01:54;;;;;;;2.53;1.40;;;8.60;52.50;;;;;;20983;6721;116691;-83
2023/12/26 01:04:31;;;;;;;2.43;1.87;;;8.40;52.80;;;;;;20767;6721;305105;-84
2023/12/26 01:07:08;;;;;;;2.90;1.80;;;8.60;52.70;;;;;;20950;6736;116855;-84
2023/12/26 01:09:43;;;;;;;1.47;1.37;;;8.60;52.70;;;;;;20908;6736;116847;-83
2023/12/26 01:12:19;;;;;;;2.60;1.87;;;8.40;52.90;;;;;;20764;6718;306430;-82
2023/12/26 01:14:54;;;;;;;1.97;1.87;;;8.60;53.00;;;;;;21007;6718;117308;-84
2023/12/26 01:17:33;;;;;;;1.63;1.50;;;8.60;52.70;;;;;;20966;6732;116746;-83
2023/12/26 01:20:06;;;;;;;1.57;1.47;;;8.50;53.00;;;;;;20886;6721;117491;-83
2023/12/26 01:22:42;;;;;;;2.13;1.83;;;8.30;53.10;;;;;;20738;6721;306251;-83
2023/12/26 01:25:17;;;;;;;3.33;1.83;;;8.50;53.30;;;;;;20754;6730;307331;-83
2023/12/26 01:27:56;;;;;;;2.00;1.73;;;8.90;52.80;;;;;;20966;6728;117108;-84
2023/12/26 01:30:28;;;;;;;1.70;1.30;;;8.80;52.40;;;;;;20806;6736;118315;-83
2023/12/26 01:33:04;;;;;;;2.80;1.70;;;8.70;52.70;;;;;;20788;6721;334578;-83
2023/12/26 01:35:43;;;;;;;3.30;1.60;;;8.70;52.70;;;;;;20994;6777;66959;-83
2023/12/26 01:38:20;;;;;;;1.87;1.60;;;8.80;52.50;;;;;;20733;6736;337796;-84
2023/12/26 01:40:55;;;;;;;1.80;1.40;;;8.80;52.40;;;;;;20821;6736;67909;-84
2023/12/26 01:43:30;;;;;;;3.00;1.70;;;8.80;52.30;;;;;;20799;6735;328793;-83
2023/12/26 01:46:03;;;;;;;2.17;1.80;;;8.90;52.30;;;;;;20700;6750;306235;-84
2023/12/26 01:48:39;;;;;;;2.33;1.43;;;9.20;51.90;;;;;;20917;6751;73411;-84
2023/12/26 01:51:18;;;;;;;1.73;1.63;;;9.10;51.70;;;;;;20753;6749;74161;-85
2023/12/26 01:53:50;;;;;;;1.27;1.17;;;8.90;52.10;;;;;;20963;6737;70605;-85
2023/12/26 01:56:28;;;;;;;1.73;1.63;;;8.60;52.50;;;;;;20931;6749;67736;-85
2023/12/26 01:59:03;;;;;;;2.42;1.70;;;8.50;52.90;;;;;;20706;6749;276666;-82
2023/12/26 02:01:39;;;;;;;3.43;1.50;;;8.70;52.90;;;;;;20943;6745;67372;-84
2023/12/26 02:04:14;;;;;;;1.77;1.60;;;8.70;52.70;;;;;;20743;6734;336628;-84
2023/12/26 02:06:50;;;;;;;4.17;1.63;;;8.80;52.60;;;;;;20992;6730;68049;-84
2023/12/26 02:09:25;;;;;;;1.97;1.30;;;8.80;52.50;;;;;;20951;6730;68215;-84
2023/12/26 02:12:01;;;;;;;1.98;1.65;;;8.60;52.70;;;;;;20790;6718;334829;-84
2023/12/26 02:14:39;;;;;;;3.27;1.70;;;8.80;52.70;;;;;;21031;6718;68155;-83
2023/12/26 02:17:23;;;;;;;3.13;1.67;;;8.60;53.00;;;;;;21029;6718;67370;-84
2023/12/26 02:20:01;;;;;;;1.30;1.20;;;8.60;53.00;;;;;;20918;6719;67292;-83
2023/12/26 02:22:34;;;;;;;2.10;1.90;;;8.50;53.30;;;;;;20809;6719;306239;-83
2023/12/26 02:25:10;;;;;;;1.73;1.60;;;8.70;53.30;;;;;;21014;6719;68397;-84
2023/12/26 02:27:47;;;;;;;2.57;1.50;;;8.60;53.30;;;;;;21023;6719;67442;-83
2023/12/26 02:30:23;;;;;;;1.40;1.30;;;8.60;53.30;;;;;;20919;6719;67759;-83
2023/12/26 02:33:00;;;;;;;1.60;1.50;;;8.50;53.50;;;;;;20804;6719;330170;-84
2023/12/26 02:35:35;;;;;;;1.60;1.50;;;8.70;53.30;;;;;;21028;6719;69604;-83
2023/12/26 02:38:11;;;;;;;1.93;1.57;;;8.80;53.00;;;;;;20812;6719;277820;-84
2023/12/26 02:40:51;;;;;;;2.10;1.62;;;9.00;52.70;;;;;;20666;6719;278477;-83
2023/12/26 02:43:33;;;;;;;;;;;;;;;;;;;;;
2023/12/26 02:45:59;;;;;;;2.60;1.57;;;9.30;51.90;;;;;;21021;6714;69637;-84
2023/12/26 02:48:35;;;;;;;1.70;1.60;;;9.10;52.40;;;;;;21003;6726;67764;-84
2023/12/26 02:51:13;;;;;;;2.67;1.30;;;8.90;52.70;;;;;;20824;6726;73150;-84
2023/12/26 02:53:46;;;;;;;1.98;1.77;;;8.70;53.10;;;;;;20826;6715;305287;-83
2023/12/26 02:56:21;;;;;;;2.28;1.50;;;8.90;53.10;;;;;;20763;6730;307483;-84
2023/12/26 02:58:57;;;;;;;1.30;1.20;;;9.30;52.50;;;;;;20992;6730;69020;-84
2023/12/26 03:01:36;;;;;;;2.35;1.55;;;9.50;52.30;;;;;;20813;6715;304092;-84
2023/12/26 03:04:09;;;;;;;2.67;1.70;;;9.40;52.20;;;;;;20830;6715;276151;-84
2023/12/26 03:06:45;;;;;;;2.63;1.23;;;9.70;52.00;;;;;;21016;6715;118256;-85
2023/12/26 03:09:22;;;;;;;2.40;1.52;;;9.70;51.60;;;;;;20681;6719;339411;-84
2023/12/26 03:11:58;;;;;;;2.20;1.87;;;9.70;51.60;;;;;;20799;6710;305535;-84
2023/12/26 03:14:34;;;;;;;1.60;1.47;;;9.80;51.20;;;;;;21024;6703;117335;-84
2023/12/26 03:17:10;;;;;;;1.40;1.30;;;9.80;51.20;;;;;;21005;6713;117556;-84
2023/12/26 03:19:46;;;;;;;2.70;1.50;;;9.60;51.60;;;;;;20901;6728;118810;-83
2023/12/26 03:22:22;;;;;;;1.85;1.62;;;9.30;52.00;;;;;;20702;6732;315738;-84
2023/12/26 03:24:57;;;;;;;1.57;1.47;;;9.50;52.20;;;;;;20985;6718;117474;-84
2023/12/26 03:27:34;;;;;;;1.87;1.50;;;9.40;52.10;;;;;;20785;6774;303656;-84
2023/12/26 03:30:11;;;;;;;2.33;1.53;;;9.80;51.60;;;;;;20578;6749;308227;-84
2023/12/26 03:32:50;;;;;;;2.57;1.33;;;9.70;51.50;;;;;;20885;6744;117374;-84
2023/12/26 03:35:26;;;;;;;1.77;1.43;;;9.70;51.50;;;;;;20933;6744;117207;-84
2023/12/26 03:37:58;;;;;;;1.53;1.43;;;9.50;52.00;;;;;;20971;6729;116785;-84
2023/12/26 03:40:34;;;;;;;1.50;1.20;;;9.20;52.40;;;;;;20815;6729;117406;-84
2023/12/26 03:43:11;;;;;;;2.33;1.00;;;8.90;53.40;;;;;;20887;6743;116812;-84
2023/12/26 03:45:48;;;;;;;1.90;1.80;;;8.90;53.30;;;;;;20764;6728;276469;-84
2023/12/26 03:48:25;;;;;;;1.80;1.40;;;9.10;53.40;;;;;;20694;6743;277680;-84
2023/12/26 03:51:01;;;;;;;2.17;1.43;;;9.50;52.90;;;;;;20814;6728;117032;-84
2023/12/26 03:53:37;;;;;;;3.10;1.70;;;9.30;53.00;;;;;;20976;6728;116351;-84
2023/12/26 03:56:13;;;;;;;1.57;1.37;;;9.30;52.90;;;;;;20959;6728;118760;-84
2023/12/26 03:58:51;;;;;;;2.05;1.60;;;9.10;53.20;;;;;;20761;6728;305125;-84
2023/12/26 04:01:24;;;;;;;3.05;1.50;;;9.30;53.20;;;;;;20568;6728;278591;-84
2023/12/26 04:04:09;;;;;;;2.10;1.63;;;9.60;52.70;;;;;;20745;6733;278298;-84
2023/12/26 04:06:35;;;;;;;2.67;1.33;;;10.00;51.10;;;;;;20948;6732;116807;-85
2023/12/26 04:09:12;;;;;;;1.20;1.10;;;9.80;51.90;;;;;;20950;6732;116683;-84
2023/12/26 04:11:46;;;;;;;1.62;1.50;;;9.60;52.40;;;;;;20735;6733;308698;-84
2023/12/26 04:14:22;;;;;;;1.70;1.17;;;9.70;52.40;;;;;;20907;6743;118131;-84
2023/12/26 04:16:57;;;;;;;1.70;1.40;;;9.60;52.30;;;;;;20878;6758;117848;-84
2023/12/26 04:19:33;;;;;;;2.20;1.03;;;9.40;52.60;;;;;;20844;6758;117878;-84
2023/12/26 04:22:10;;;;;;;4.27;1.70;;;9.30;53.00;;;;;;20924;6733;117108;-84
2023/12/26 04:24:47;;;;;;;2.87;1.83;;;9.10;53.30;;;;;;20740;6729;334841;-84
2023/12/26 04:27:20;;;;;;;2.87;1.50;;;9.30;53.30;;;;;;20980;6728;117692;-84
2023/12/26 04:29:58;;;;;;;2.43;1.60;;;9.30;53.00;;;;;;20738;6714;324089;-84
2023/12/26 04:32:31;;;;;;;2.63;1.47;;;9.50;52.90;;;;;;21004;6714;119209;-84
2023/12/26 04:35:07;;;;;;;2.83;1.50;;;9.50;52.70;;;;;;21018;6714;115838;-84
2023/12/26 04:37:42;;;;;;;2.17;1.90;;;9.30;52.90;;;;;;20840;6704;304901;-84
2023/12/26 04:40:19;;;;;;;1.10;1.10;;;9.50;52.70;;;;;;20930;6704;116970;-84
2023/12/26 04:42:54;;;;;;;2.92;1.55;;;9.50;52.70;;;;;;20830;6704;306908;-84
2023/12/26 04:45:31;;;;;;;1.53;1.40;;;9.60;52.50;;;;;;21053;6704;116482;-84
2023/12/26 04:48:07;;;;;;;1.77;1.33;;;9.60;52.50;;;;;;21032;6704;117252;-84
2023/12/26 04:50:42;;;;;;;2.57;1.40;;;9.40;52.80;;;;;;20920;6704;117083;-84
2023/12/26 04:53:27;;;;;;;4.18;1.85;;;9.20;53.10;;;;;;20795;6709;334021;-84
2023/12/26 04:55:53;;;;;;;3.50;1.60;;;9.40;53.10;;;;;;20754;6730;317504;-84
2023/12/26 04:58:28;;;;;;;2.90;1.80;;;9.70;52.50;;;;;;20689;6745;305705;-84
2023/12/26 05:01:04;;;;;;;3.43;1.90;;;10.00;50.90;;;;;;20550;6744;278676;-84
2023/12/26 05:03:40;;;;;;;2.67;1.37;;;10.30;50.40;;;;;;20874;6748;117503;-85
2023/12/26 05:06:15;;;;;;;1.50;1.40;;;10.10;50.30;;;;;;20674;6763;286668;-84
2023/12/26 05:08:54;;;;;;;2.72;1.85;;;10.10;50.40;;;;;;20772;6733;334487;-84
2023/12/26 05:11:26;;;;;;;1.67;1.50;;;10.30;50.10;;;;;;20654;6832;117873;-84
2023/12/26 05:14:05;;;;;;;1.67;1.40;;;10.20;50.20;;;;;;21015;6703;116951;-84
2023/12/26 05:16:48;;;;;;;;;;;;;;;;;;;;;
2023/12/26 05:19:13;;;;;;;3.50;1.57;;;9.90;51.80;;;;;;20739;6782;117863;-84
2023/12/26 05:21:49;;;;;;;3.00;1.50;;;9.90;51.80;;;;;;20793;6787;117863;-84
2023/12/26 05:24:34;;;;;;;;;;;;;;;;;;;;;
2023/12/26 05:27:00;;;;;;;1.73;1.60;;;9.80;52.10;;;;;;20806;6779;116980;-84
2023/12/26 05:29:40;;;;;;;2.70;1.67;;;9.70;52.00;;;;;;20568;6779;338484;-84
2023/12/26 05:32:13;;;;;;;4.47;1.60;;;9.80;52.10;;;;;;20771;6779;117737;-79
2023/12/26 05:34:48;;;;;;;3.03;1.20;;;9.80;52.00;;;;;;20815;6784;119257;-79
2023/12/26 05:37:25;;;;;;;2.60;1.58;;;9.70;52.40;;;;;;20576;6785;310311;-78
2023/12/26 05:40:00;;;;;;;2.40;1.67;;;9.70;52.40;;;;;;20525;6798;309573;-79
2023/12/26 05:42:37;;;;;;;2.60;1.30;;;9.90;51.70;;;;;;20819;6772;116327;-79
2023/12/26 05:45:14;;;;;;;2.10;1.62;;;9.90;51.70;;;;;;20542;6799;308195;-79
2023/12/26 05:47:49;;;;;;;1.73;1.57;;;10.00;50.90;;;;;;20805;6783;116003;-79
2023/12/26 05:50:25;;;;;;;2.67;1.90;;;10.00;50.90;;;;;;20476;6784;400781;-79
2023/12/26 05:53:01;;;;;;;2.90;1.60;;;10.00;51.00;;;;;;20658;6764;295331;-78
2023/12/26 05:55:37;;;;;;;1.73;1.33;;;10.20;50.80;;;;;;20865;6764;117111;-79
2023/12/26 05:58:13;;;;;;;1.90;1.70;;;10.20;50.70;;;;;;20831;6769;117495;-78
2023/12/26 06:00:48;;;;;;;2.35;1.40;;;9.90;52.00;;;;;;20453;6777;312046;-78
2023/12/26 06:03:24;;;;;;;1.67;1.30;;;10.00;51.00;;;;;;20783;6788;117072;-78
2023/12/26 06:06:00;;;;;;;1.50;1.40;;;9.70;52.40;;;;;;20749;6800;116432;-78
2023/12/26 06:08:36;;;;;;;1.30;1.20;;;9.60;52.30;;;;;;20798;6774;117396;-78
2023/12/26 06:11:12;;;;;;;1.50;1.40;;;9.50;52.70;;;;;;20566;6789;117737;-78
2023/12/26 06:13:48;;;;;;;1.70;1.37;;;9.20;53.20;;;;;;20819;6775;116982;-79
2023/12/26 06:16:25;;;;;;;3.58;1.73;;;9.20;53.10;;;;;;20664;6756;278979;-79
2023/12/26 06:19:02;;;;;;;3.58;1.90;;;9.40;53.20;;;;;;20674;6756;336268;-79
2023/12/26 06:21:38;;;;;;;3.70;2.00;;;9.80;52.60;;;;;;20662;6758;336561;-79
2023/12/26 06:24:14;;;;;;;2.40;1.57;;;10.10;51.00;;;;;;20865;6756;116865;-79
2023/12/26 06:26:50;;;;;;;3.07;1.40;;;10.00;50.80;;;;;;20888;6756;117551;-79
2023/12/26 06:29:27;;;;;;;2.78;1.90;;;9.70;52.90;;;;;;20649;6756;310703;-80
2023/12/26 06:32:02;;;;;;;2.97;1.75;;;9.80;52.40;;;;;;20576;6783;337510;-78
2023/12/26 06:34:38;;;;;;;2.37;1.40;;;10.00;51.00;;;;;;20828;6771;117491;-79
2023/12/26 06:37:17;;;;;;;2.10;1.80;;;9.90;51.90;;;;;;20833;6772;121301;-88
2023/12/26 06:39:52;;;;;;;2.90;1.67;;;9.60;52.30;;;;;;20732;6783;117067;-80
2023/12/26 06:42:33;;;;;;;1.57;1.13;;;9.40;52.80;;;;;;20718;6783;117350;-79
2023/12/26 06:45:30;;;;;;;;;;;;;;;;;;;;;
2023/12/26 06:47:56;;;;;;;2.03;1.30;;;8.90;53.70;;;;;;20785;6827;116922;-80
2023/12/26 06:50:35;;;;;;;2.53;1.50;;;8.90;53.70;;;;;;20682;6812;121777;-79
2023/12/26 06:53:14;;;;;;;2.87;1.62;;;8.80;54.00;;;;;;20633;6757;308155;-79
2023/12/26 06:55:53;;;;;;;3.10;1.70;;;9.00;54.10;;;;;;20875;6757;116835;-80
2023/12/26 06:58:29;;;;;;;3.60;1.67;;;8.90;53.80;;;;;;20819;6772;118434;-81
2023/12/26 07:01:17;;;;;;;1.77;1.50;;;8.90;53.80;;;;;;20665;6817;117278;-85
2023/12/26 07:03:56;;;;;;;1.77;1.62;;;8.80;54.00;;;;;;20668;6760;278389;-84
2023/12/26 07:06:35;;;;;;;2.27;1.80;;;9.10;53.90;;;;;;20857;6761;117768;-85
2023/12/26 07:09:10;;;;;;;3.80;2.00;;;9.10;53.50;;;;;;20551;6843;278215;-85
2023/12/26 07:11:51;;;;;;;3.40;1.93;;;9.60;52.50;;;;;;20549;6796;336738;-84
2023/12/26 07:14:29;;;;;;;3.85;1.80;;;9.60;52.50;;;;;;20639;6758;306982;-84
2023/12/26 07:17:05;;;;;;;2.83;1.47;;;9.90;51.90;;;;;;20888;6758;117227;-84
2023/12/26 07:19:41;;;;;;;2.63;1.60;;;9.80;51.90;;;;;;20839;6758;117108;-84
2023/12/26 07:22:21;;;;;;;3.83;1.90;;;9.50;52.40;;;;;;20608;6814;335599;-84
2023/12/26 07:25:01;;;;;;;2.33;2.00;;;9.50;52.40;;;;;;20680;6758;306435;-84
2023/12/26 07:27:48;;;;;;;;;;;;;;;;;;;;;
2023/12/26 07:30:27;;;;;;;3.00;1.63;;;10.00;50.50;;;;;;20767;6758;117684;-85
2023/12/26 07:33:04;;;;;;;;;;;;;;;;;;;;;
2023/12/26 07:35:30;;;;;;;3.70;1.70;;;9.80;51.60;;;;;;20851;6814;117197;-85
2023/12/26 07:38:06;;;;;;;2.97;1.73;;;9.80;52.00;;;;;;20672;6758;336882;-82
2023/12/26 07:40:44;;;;;;;4.63;1.90;;;9.70;51.90;;;;;;20719;6813;117459;-82
2023/12/26 07:43:20;;;;;;;2.53;1.80;;;9.60;52.00;;;;;;20677;6757;335153;-83
2023/12/26 07:45:56;;;;;;;4.40;2.03;;;9.70;52.10;;;;;;20868;6814;117336;-82
2023/12/26 07:48:32;;;;;;;2.10;1.83;;;9.60;52.20;;;;;;20861;6758;119368;-82
2023/12/26 07:51:15;;;;;;;3.67;1.80;;;9.40;52.60;;;;;;20461;6814;281027;-84
2023/12/26 07:53:47;;;;;;;3.05;1.67;;;9.80;53.00;;;;;;20677;6758;306723;-80
2023/12/26 07:56:25;;;;;;;2.43;1.63;;;9.80;52.40;;;;;;20854;6758;117001;-81
2023/12/26 07:58:59;;;;;;;2.00;1.70;;;9.80;52.30;;;;;;20669;6758;335374;-80
2023/12/26 08:01:35;;;;;;;2.30;1.67;;;9.80;52.30;;;;;;20865;6755;117500;-80
2023/12/26 08:04:11;;;;;;;2.72;1.87;;;9.70;52.30;;;;;;20613;6768;306754;-83
2023/12/26 08:06:48;;;;;;;2.13;1.60;;;9.80;52.40;;;;;;20861;6769;116050;-80
2023/12/26 08:09:23;;;;;;;1.90;1.70;;;9.70;52.40;;;;;;20754;6784;115890;-85
2023/12/26 08:11:59;;;;;;;2.40;1.70;;;9.50;52.80;;;;;;20874;6753;116806;-81
2023/12/26 08:14:34;;;;;;;4.27;3.87;;;9.30;53.20;;;;;;20647;6758;306594;-80
2023/12/26 08:17:10;;;;;;;4.33;1.77;;;9.40;53.00;;;;;;20875;6758;116768;-85
2023/12/26 08:19:49;;;;;;;2.87;2.00;;;9.50;53.00;;;;;;20603;6758;337527;-84
2023/12/26 08:22:24;;;;;;;2.03;1.93;;;9.60;52.70;;;;;;20817;6758;117184;-83
2023/12/26 08:25:00;;;;;;;2.08;1.80;;;9.60;52.60;;;;;;20666;6758;333930;-83
2023/12/26 08:27:32;;;;;;;3.93;2.67;;;9.80;52.40;;;;;;20875;6758;117476;-82
2023/12/26 08:30:12;;;;;;;2.87;1.53;;;9.80;52.30;;;;;;20768;6758;144581;-83
2023/12/26 08:32:48;;;;;;;2.63;1.77;;;9.60;52.30;;;;;;20803;6778;117284;-83
2023/12/26 08:35:24;;;;;;;2.20;2.07;;;9.40;52.80;;;;;;20876;6759;116917;-83
2023/12/26 08:37:59;;;;;;;2.87;1.87;;;9.30;53.10;;;;;;20622;6774;281012;-83
2023/12/26 08:40:33;;;;;;;3.42;2.50;;;9.50;52.90;;;;;;20452;6788;311178;-81
2023/12/26 08:43:09;;;;;;;3.90;2.55;;;10.30;50.50;;;;;;20566;6790;279270;-81
2023/12/26 08:45:45;;;;;;;2.93;1.90;;;10.30;50.40;;;;;;20786;6785;118208;-84
2023/12/26 08:48:21;;;;;;;4.28;2.15;;;10.30;50.10;;;;;;20589;6775;336404;-83
2023/12/26 08:50:57;;;;;;;3.60;3.10;;;10.30;50.10;;;;;;20401;6789;281336;-81
2023/12/26 08:53:33;;;;;;;4.00;2.97;;;10.50;49.50;;;;;;20647;6790;118284;-80
2023/12/26 08:56:15;;;;;;;2.00;1.80;;;10.50;49.60;;;;;;20758;6787;118297;-80
2023/12/26 08:58:47;;;;;;;2.10;1.63;;;10.30;50.10;;;;;;20829;6782;114363;-80
2023/12/26 09:01:20;;;;;;;3.90;2.07;;;10.10;50.70;;;;;;20378;6791;310771;-80
2023/12/26 09:04:02;;;;;;;3.33;2.00;;;10.20;50.30;;;;;;20537;6786;336157;-81
2023/12/26 09:06:37;;;;;;;2.73;1.87;;;10.50;49.80;;;;;;20840;6757;118606;-80
2023/12/26 09:09:35;;;;;;;1.63;1.53;;;10.50;49.70;;;;;;20793;6771;117920;-79
2023/12/26 09:12:08;;;;;;;3.90;2.47;;;10.30;50.10;;;;;;20821;6761;118724;-80
2023/12/26 09:14:45;;;;;;;5.50;3.10;;;10.20;50.20;;;;;;20657;6758;306135;-78
2023/12/26 09:17:24;;;;;;;3.27;1.87;;;10.20;50.20;;;;;;20480;6812;309290;-83
2023/12/26 09:20:01;;;;;;;3.17;2.00;;;10.60;49.70;;;;;;20724;6829;117155;-85
2023/12/26 09:22:36;;;;;;;2.93;2.10;;;10.60;49.70;;;;;;20572;6779;307900;-85
2023/12/26 09:25:17;;;;;;;1.87;1.70;;;10.70;49.70;;;;;;20847;6769;117085;-84
2023/12/26 09:28:02;;;;;;;7.43;2.40;;;10.60;49.40;;;;;;20552;6770;336771;-84
2023/12/26 09:30:44;;;;;;;2.00;1.90;;;10.70;49.20;;;;;;20695;6778;119220;-86
2023/12/26 09:33:19;;;;;;;3.23;2.03;;;10.70;49.30;;;;;;20793;6817;116798;-85
2023/12/26 09:35:55;;;;;;;2.53;1.83;;;10.50;49.70;;;;;;20778;6755;116942;-84
2023/12/26 09:38:32;;;;;;;2.10;1.90;;;10.30;50.10;;;;;;20703;6774;117747;-83
2023/12/26 09:41:11;;;;;;;4.47;2.57;;;10.20;50.50;;;;;;20292;6866;280717;-86
2023/12/26 09:43:46;;;;;;;2.07;1.90;;;10.30;50.10;;;;;;20745;6792;68018;-85
2023/12/26 09:46:19;;;;;;;2.92;2.10;;;10.40;50.00;;;;;;20507;6791;282462;-85
2023/12/26 09:48:58;;;;;;;3.23;2.30;;;10.60;49.60;;;;;;20566;6783;308287;-86
2023/12/26 09:51:41;;;;;;;;;;;;;;;;;;;;;
2023/12/26 09:54:10;;;;;;;2.27;1.83;;;11.20;48.30;;;;;;20785;6774;117576;-85
2023/12/26 09:56:53;;;;;;;3.80;1.80;;;11.10;48.50;;;;;;20836;6759;117411;-83
2023/12/26 09:59:23;;;;;;;5.07;4.57;;;10.90;49.10;;;;;;20613;6759;309852;-85
2023/12/26 10:02:01;;;;;;;3.10;1.90;;;10.90;48.80;;;;;;20778;6786;118691;-85
2023/12/26 10:04:34;;;;;;;2.62;2.10;;;10.90;49.00;;;;;;20536;6793;279263;-84
2023/12/26 10:07:14;;;;;;;2.50;2.07;;;11.30;48.30;;;;;;20604;6770;277319;-81
2023/12/26 10:09:46;;;;;;;3.50;2.40;;;11.20;48.20;;;;;;20565;6643;281255;-79
2023/12/26 10:12:21;;;;;;;3.75;1.90;;;11.50;47.80;;;;;;20655;6747;277064;-81
2023/12/26 10:15:09;;;;;;;2.60;1.70;;;11.70;47.40;;;;;;20805;6773;118961;-78
2023/12/26 10:17:44;;;;;;;5.60;1.60;;;11.50;47.70;;;;;;20778;6773;118726;-78
2023/12/26 10:20:23;;;;;;;4.40;2.40;;;11.20;48.20;;;;;;20540;6759;306800;-78
2023/12/26 10:22:58;;;;;;;2.97;2.00;;;11.20;48.20;;;;;;20827;6773;117142;-82
2023/12/26 10:25:34;;;;;;;3.70;3.08;;;11.20;48.50;;;;;;20642;6759;337635;-78
2023/12/26 10:28:10;;;;;;;3.73;3.13;;;11.20;48.10;;;;;;20779;6774;118276;-79
2023/12/26 10:30:47;;;;;;;4.20;3.00;;;11.00;48.80;;;;;;20681;6773;117764;-80
2023/12/26 10:33:25;;;;;;;4.57;3.83;;;11.10;49.20;;;;;;20640;6760;336704;-80
2023/12/26 10:36:10;;;;;;;4.00;2.80;;;11.10;48.50;;;;;;20804;6773;118597;-80
2023/12/26 10:38:47;;;;;;;2.87;1.77;;;11.10;48.60;;;;;;20775;6773;117273;-80
2023/12/26 10:41:23;;;;;;;3.50;1.60;;;11.00;49.10;;;;;;20633;6774;117686;-82
2023/12/26 10:43:59;;;;;;;2.30;2.10;;;10.90;49.50;;;;;;20823;6762;117223;-82
2023/12/26 10:46:38;;;;;;;3.17;2.10;;;10.80;49.70;;;;;;20603;6762;278018;-81
2023/12/26 10:49:11;;;;;;;3.63;2.80;;;11.00;49.00;;;;;;20604;6762;306765;-80
2023/12/26 10:51:47;;;;;;;2.23;2.00;;;11.30;48.40;;;;;;20838;6759;117657;-78
2023/12/26 10:54:26;;;;;;;2.30;1.90;;;11.40;48.40;;;;;;20784;6774;117412;-79
2023/12/26 10:57:03;;;;;;;3.20;2.23;;;11.30;48.80;;;;;;20654;6759;294181;-80
2023/12/26 10:59:38;;;;;;;4.30;2.90;;;11.40;48.50;;;;;;20562;6774;310949;-78
2023/12/26 11:02:14;;;;;;;5.60;3.03;;;11.70;48.10;;;;;;20792;6777;118216;-80
2023/12/26 11:04:50;;;;;;;4.37;2.63;;;11.50;48.50;;;;;;20766;6782;118410;-78
2023/12/26 11:07:26;;;;;;;5.23;4.27;;;11.50;48.40;;;;;;20562;6787;278953;-77
2023/12/26 11:10:01;;;;;;;5.03;2.30;;;11.60;48.50;;;;;;20483;6792;281256;-77
2023/12/26 11:12:38;;;;;;;3.40;2.50;;;11.80;48.00;;;;;;20579;6778;306353;-85
2023/12/26 11:15:13;;;;;;;2.07;1.67;;;12.10;47.60;;;;;;20809;6777;117484;-79
2023/12/26 11:17:50;;;;;;;4.55;2.60;;;12.00;47.70;;;;;;20594;6778;278505;-84
2023/12/26 11:20:26;;;;;;;4.87;2.37;;;12.00;47.50;;;;;;20681;6778;117646;-76
2023/12/26 11:23:02;;;;;;;4.80;4.00;;;11.90;47.70;;;;;;20651;6762;278291;-77
2023/12/26 11:25:38;;;;;;;5.50;4.43;;;12.30;47.60;;;;;;20587;6777;307099;-78
2023/12/26 11:28:13;;;;;;;6.95;5.10;;;12.20;47.50;;;;;;20578;6777;324987;-79
2023/12/26 11:30:49;;;;;;;4.87;3.50;;;12.50;47.20;;;;;;20472;6777;281993;-78
2023/12/26 11:33:26;;;;;;;11.57;6.40;;;12.70;46.90;;;;;;20611;6777;278221;-77
2023/12/26 11:36:04;;;;;;;3.87;2.70;;;12.90;46.70;;;;;;20616;6774;278668;-77
2023/12/26 11:38:41;;;;;;;5.30;3.75;;;13.00;46.50;;;;;;20663;6758;336038;-78
2023/12/26 11:41:17;;;;;;;3.10;2.80;;;13.10;46.30;;;;;;20699;6758;118627;-81
2023/12/26 11:43:52;;;;;;;6.90;4.73;;;12.90;46.60;;;;;;20882;6758;118862;-81
2023/12/26 11:46:28;;;;;;;3.45;3.15;;;12.70;47.30;;;;;;20626;6758;334105;-76
2023/12/26 11:49:04;;;;;;;3.17;2.30;;;12.70;47.50;;;;;;20861;6758;119021;-74
2023/12/26 11:51:41;;;;;;;2.50;2.30;;;12.50;48.30;;;;;;20872;6758;117086;-73
2023/12/26 11:54:17;;;;;;;4.18;2.45;;;12.50;47.90;;;;;;20646;6758;336461;-73
2023/12/26 11:56:52;;;;;;;3.50;3.20;;;12.60;47.90;;;;;;20876;6758;117028;-73
2023/12/26 11:59:29;;;;;;;2.10;1.87;;;12.40;48.30;;;;;;20842;6758;117038;-74
2023/12/26 12:02:04;;;;;;;2.47;2.37;;;12.40;48.20;;;;;;20873;6758;117006;-75
2023/12/26 12:04:40;;;;;;;1.70;1.60;;;12.30;48.60;;;;;;20879;6758;118394;-75
2023/12/26 12:07:15;;;;;;;3.25;2.50;;;12.30;49.00;;;;;;20663;6758;337788;-77
2023/12/26 12:09:51;;;;;;;4.43;3.40;;;12.60;48.70;;;;;;20808;6758;118700;-75
2023/12/26 12:12:27;;;;;;;4.13;2.37;;;12.60;49.00;;;;;;20823;6814;117673;-73
2023/12/26 12:15:03;;;;;;;3.08;2.78;;;12.60;48.50;;;;;;20645;6758;305724;-76
2023/12/26 12:17:39;;;;;;;1.63;1.53;;;12.70;48.10;;;;;;20880;6758;117927;-77
2023/12/26 12:20:18;;;;;;;1.60;1.50;;;12.70;48.10;;;;;;20751;6758;118209;-74
2023/12/26 12:22:54;;;;;;;3.40;2.63;;;12.60;48.40;;;;;;20876;6758;117377;-75
2023/12/26 12:25:32;;;;;;;3.25;2.50;;;12.40;48.60;;;;;;20665;6758;306724;-77
2023/12/26 12:28:11;;;;;;;4.03;1.93;;;12.50;48.50;;;;;;20861;6757;118711;-80
2023/12/26 12:30:47;;;;;;;2.57;2.00;;;12.30;49.10;;;;;;20746;6757;117603;-75
2023/12/26 12:33:23;;;;;;;2.55;1.70;;;12.30;48.70;;;;;;20597;6814;294759;-81
2023/12/26 12:35:59;;;;;;;2.97;2.00;;;12.50;48.70;;;;;;20873;6758;118537;-78
2023/12/26 12:38:35;;;;;;;4.73;3.93;;;12.40;48.60;;;;;;20853;6757;118061;-80
2023/12/26 12:41:10;;;;;;;4.40;3.93;;;12.30;48.80;;;;;;20720;6758;117938;-78
2023/12/26 12:43:47;;;;;;;2.33;2.13;;;12.00;49.30;;;;;;20875;6758;117446;-78
2023/12/26 12:46:22;;;;;;;2.97;2.20;;;12.00;49.20;;;;;;20638;6758;277583;-76
2023/12/26 12:49:01;;;;;;;0.80;0.80;;;12.20;49.20;;;;;;20864;6758;117140;-78
2023/12/26 12:51:37;;;;;;;2.13;1.43;;;12.20;48.80;;;;;;20663;6758;305995;-75
2023/12/26 12:54:12;;;;;;;1.10;1.07;;;12.40;48.70;;;;;;20860;6758;120199;-74
2023/12/26 12:56:48;;;;;;;1.93;0.93;;;12.30;48.60;;;;;;20877;6758;119818;-75
2023/12/26 12:59:25;;;;;;;0.90;0.90;;;12.20;49.00;;;;;;20851;6758;117106;-80
2023/12/26 13:02:00;;;;;;;2.13;1.20;;;12.00;49.30;;;;;;20645;6758;306434;-79
2023/12/26 13:04:40;;;;;;;1.37;1.27;;;12.30;50.00;;;;;;20862;6758;118106;-80
2023/12/26 13:07:15;;;;;;;1.50;1.30;;;12.30;49.40;;;;;;20666;6758;277771;-83
2023/12/26 13:09:51;;;;;;;1.10;0.90;;;12.40;49.10;;;;;;20816;6758;118152;-79
2023/12/26 13:12:26;;;;;;;1.80;1.07;;;12.40;49.00;;;;;;20864;6758;117880;-78
2023/12/26 13:15:03;;;;;;;2.00;0.97;;;12.10;49.50;;;;;;20859;6758;118109;-75
2023/12/26 13:17:38;;;;;;;1.65;1.10;;;12.10;49.50;;;;;;20663;6758;277572;-77
2023/12/26 13:20:15;;;;;;;1.60;1.20;;;12.60;49.20;;;;;;20547;6758;308846;-77
2023/12/26 13:22:51;;;;;;;0.93;0.80;;;12.60;49.20;;;;;;20879;6758;117229;-77
2023/12/26 13:25:27;;;;;;;0.93;0.83;;;12.60;49.10;;;;;;20884;6758;117082;-77
2023/12/26 13:28:06;;;;;;;1.00;0.80;;;12.40;49.30;;;;;;20882;6758;119127;-77
2023/12/26 13:30:41;;;;;;;2.53;0.80;;;12.20;49.40;;;;;;20751;6758;117572;-77
2023/12/26 13:33:17;;;;;;;2.33;1.08;;;12.10;49.70;;;;;;20675;6758;306666;-77
2023/12/26 13:35:52;;;;;;;2.43;1.13;;;12.30;49.80;;;;;;20880;6758;118218;-77
2023/12/26 13:38:28;;;;;;;5.13;1.10;;;12.40;50.00;;;;;;20866;6757;117402;-77